createdAt,value
2023-05-01T00:01:00.161Z,11.22
2023-05-01T00:03:03.422Z,11.24
2023-05-01T00:05:07.582Z,11.18
2023-05-01T00:07:10.435Z,11.19
2023-05-01T00:09:13.294Z,11.19
2023-05-01T00:11:17.585Z,11.16
2023-05-01T00:13:21.973Z,10.80
2023-05-01T00:15:24.958Z,10.98
2023-05-01T00:17:28.235Z,11.11
2023-05-01T00:19:31.226Z,11.12
2023-05-01T00:21:34.506Z,11.07
2023-05-01T00:23:38.319Z,11.05
2023-05-01T00:25:41.250Z,11.02
2023-05-01T00:27:45.740Z,10.99
2023-05-01T00:29:48.646Z,10.97
2023-05-01T00:31:51.656Z,10.94
2023-05-01T00:33:54.576Z,10.89
2023-05-01T00:35:57.521Z,10.86
2023-05-01T00:38:00.420Z,10.90
2023-05-01T00:40:03.860Z,10.84
2023-05-01T00:42:07.038Z,10.80
2023-05-01T00:44:11.490Z,10.72
2023-05-01T00:46:14.439Z,10.71
2023-05-01T00:48:17.428Z,10.68
2023-05-01T00:50:20.381Z,10.58
2023-05-01T00:52:24.604Z,10.60
2023-05-01T00:54:28.424Z,10.59
2023-05-01T00:56:32.080Z,10.64
2023-05-01T00:58:34.988Z,10.57
2023-05-01T01:00:39.290Z,10.58
2023-05-01T01:02:42.279Z,10.63
2023-05-01T01:04:47.041Z,10.64
2023-05-01T01:06:55.015Z,10.63
2023-05-01T01:09:07.914Z,10.54
2023-05-01T01:11:16.417Z,10.42
2023-05-01T01:13:22.727Z,10.54
2023-05-01T01:15:30.576Z,10.52
2023-05-01T01:17:39.927Z,10.46
2023-05-01T01:20:18.718Z,10.48
2023-05-01T01:22:24.964Z,10.48
2023-05-01T01:24:43.757Z,10.49
2023-05-01T01:27:28.112Z,10.41
2023-05-01T01:29:41.878Z,10.43
2023-05-01T01:31:54.045Z,10.45
2023-05-01T01:34:04.169Z,10.40
2023-05-01T01:36:09.490Z,10.39
2023-05-01T01:38:17.847Z,10.39
2023-05-01T01:40:25.052Z,10.39
2023-05-01T01:42:31.782Z,10.36
2023-05-01T01:44:35.871Z,10.33
2023-05-01T01:46:40.936Z,10.27
2023-05-01T01:48:47.871Z,10.26
2023-05-01T01:50:54.710Z,10.19
2023-05-01T01:52:59.534Z,10.17
2023-05-01T01:55:06.480Z,10.10
2023-05-01T01:57:09.669Z,10.06
2023-05-01T01:59:13.495Z,10.04
2023-05-01T02:01:18.474Z,10.04
2023-05-01T02:03:22.085Z,10.06
2023-05-01T02:05:26.219Z,9.97
2023-05-01T02:07:32.994Z,9.93
2023-05-01T02:09:36.856Z,9.91
2023-05-01T02:11:41.440Z,9.87
2023-05-01T02:13:45.130Z,9.86
2023-05-01T02:15:48.912Z,9.83
2023-05-01T02:17:52.620Z,9.86
2023-05-01T02:19:57.352Z,9.87
2023-05-01T02:22:00.825Z,9.80
2023-05-01T02:24:06.507Z,9.93
2023-05-01T02:26:12.304Z,9.96
2023-05-01T02:28:16.919Z,9.93
2023-05-01T02:30:19.868Z,9.90
2023-05-01T02:32:22.797Z,9.91
2023-05-01T02:34:25.941Z,9.88
2023-05-01T02:36:28.940Z,9.87
2023-05-01T02:38:31.560Z,9.87
2023-05-01T02:40:37.912Z,9.84
2023-05-01T02:42:41.052Z,9.83
2023-05-01T02:44:47.146Z,9.82
2023-05-01T02:46:50.940Z,9.75
2023-05-01T02:48:54.474Z,9.70
2023-05-01T02:50:58.324Z,9.67
2023-05-01T02:53:02.213Z,9.66
2023-05-01T02:55:20.560Z,9.61
2023-05-01T02:57:24.869Z,9.60
2023-05-01T02:59:27.781Z,9.50
2023-05-01T03:01:30.809Z,9.52
2023-05-01T03:03:33.698Z,9.42
2023-05-01T03:05:36.633Z,9.41
2023-05-01T03:07:39.479Z,9.39
2023-05-01T03:09:43.649Z,9.35
2023-05-01T03:11:46.610Z,9.32
2023-05-01T03:13:51.499Z,9.26
2023-05-01T03:15:54.355Z,9.30
2023-05-01T03:17:57.314Z,9.34
2023-05-01T03:20:00.174Z,9.35
2023-05-01T03:22:04.058Z,9.31
2023-05-01T03:24:08.052Z,9.39
2023-05-01T03:26:11.123Z,9.33
2023-05-01T03:28:14.188Z,9.34
2023-05-01T03:30:18.560Z,9.28
2023-05-01T03:32:21.711Z,9.29
2023-05-01T03:34:25.818Z,9.27
2023-05-01T03:36:30.039Z,9.32
2023-05-01T03:38:33.298Z,9.33
2023-05-01T03:40:45.301Z,9.31
2023-05-01T03:43:06.578Z,9.34
2023-05-01T03:45:10.548Z,9.37
2023-05-01T03:47:16.191Z,9.36
2023-05-01T03:49:19.309Z,9.37
2023-05-01T03:51:24.909Z,9.40
2023-05-01T03:53:30.199Z,9.44
2023-05-01T03:55:33.972Z,9.45
2023-05-01T03:57:37.791Z,9.49
2023-05-01T03:59:43.741Z,9.50
2023-05-01T04:01:47.688Z,9.46
2023-05-01T04:03:52.139Z,9.45
2023-05-01T04:05:55.248Z,9.42
2023-05-01T04:07:58.170Z,9.46
2023-05-01T04:10:01.957Z,9.49
2023-05-01T04:12:05.763Z,9.50
2023-05-01T04:14:08.812Z,9.50
2023-05-01T04:16:13.049Z,9.54
2023-05-01T04:18:16.325Z,9.58
2023-05-01T04:20:20.695Z,9.62
2023-05-01T04:22:23.888Z,9.57
2023-05-01T04:24:28.100Z,9.61
2023-05-01T04:26:31.108Z,9.62
2023-05-01T04:28:33.986Z,9.61
2023-05-01T04:30:37.670Z,9.63
2023-05-01T04:32:40.891Z,9.64
2023-05-01T04:34:43.924Z,9.65
2023-05-01T04:36:49.071Z,9.69
2023-05-01T04:38:52.343Z,9.74
2023-05-01T04:40:55.439Z,9.76
2023-05-01T04:42:58.493Z,9.78
2023-05-01T04:45:04.058Z,9.80
2023-05-01T04:47:10.637Z,9.83
2023-05-01T04:49:14.468Z,9.88
2023-05-01T04:51:17.375Z,9.88
2023-05-01T04:53:21.587Z,9.98
2023-05-01T04:55:25.010Z,10.01
2023-05-01T04:57:48.193Z,10.06
2023-05-01T04:59:51.462Z,10.09
2023-05-01T05:01:54.487Z,10.16
2023-05-01T05:03:58.990Z,10.25
2023-05-01T05:06:02.209Z,10.30
2023-05-01T05:08:05.430Z,10.38
2023-05-01T05:10:15.193Z,10.46
2023-05-01T05:12:24.909Z,10.56
2023-05-01T05:14:27.759Z,10.68
2023-05-01T05:16:30.854Z,10.79
2023-05-01T05:18:33.832Z,10.84
2023-05-01T05:20:39.555Z,11.10
2023-05-01T05:22:42.424Z,11.26
2023-05-01T05:24:55.936Z,11.46
2023-05-01T05:27:00.332Z,11.70
2023-05-01T05:29:03.281Z,11.96
2023-05-01T05:31:06.451Z,12.15
2023-05-01T05:33:10.277Z,12.37
2023-05-01T05:35:13.267Z,12.69
2023-05-01T05:37:16.311Z,12.95
2023-05-01T05:39:25.855Z,13.39
2023-05-01T05:41:28.930Z,13.58
2023-05-01T05:43:37.273Z,13.97
2023-05-01T05:45:41.207Z,14.07
2023-05-01T05:47:44.525Z,14.21
2023-05-01T05:49:48.500Z,14.35
2023-05-01T05:51:51.655Z,14.56
2023-05-01T05:53:55.062Z,14.78
2023-05-01T05:55:58.016Z,14.95
2023-05-01T05:58:01.613Z,15.09
2023-05-01T06:00:09.393Z,15.27
2023-05-01T06:02:24.202Z,15.47
2023-05-01T06:04:27.203Z,15.81
2023-05-01T06:06:31.478Z,16.12
2023-05-01T06:08:35.432Z,16.38
2023-05-01T06:10:42.721Z,16.60
2023-05-01T06:12:50.560Z,16.73
2023-05-01T06:15:02.832Z,17.00
2023-05-01T06:17:08.347Z,16.80
2023-05-01T06:19:12.434Z,16.64
2023-05-01T06:21:16.359Z,16.78
2023-05-01T06:23:20.140Z,16.79
2023-05-01T06:25:55.562Z,16.59
2023-05-01T06:27:58.506Z,16.39
2023-05-01T06:30:02.047Z,16.34
2023-05-01T06:32:08.247Z,16.32
2023-05-01T06:34:11.369Z,16.44
2023-05-01T06:36:23.508Z,16.40
2023-05-01T06:38:27.061Z,16.43
2023-05-01T06:40:31.843Z,16.60
2023-05-01T06:42:34.903Z,16.89
2023-05-01T06:44:38.288Z,16.98
2023-05-01T06:46:42.655Z,17.43
2023-05-01T06:48:48.220Z,17.52
2023-05-01T06:50:51.380Z,17.62
2023-05-01T06:52:54.289Z,17.75
2023-05-01T06:54:57.149Z,18.02
2023-05-01T06:57:00.673Z,17.72
2023-05-01T06:59:04.181Z,17.82
2023-05-01T07:01:07.172Z,17.89
2023-05-01T07:03:10.150Z,17.97
2023-05-01T07:05:14.539Z,18.01
2023-05-01T07:07:17.376Z,18.14
2023-05-01T07:09:20.222Z,17.76
2023-05-01T07:11:23.104Z,18.01
2023-05-01T07:13:27.559Z,18.06
2023-05-01T07:15:30.453Z,18.17
2023-05-01T07:17:33.303Z,18.55
2023-05-01T07:19:36.329Z,18.54
2023-05-01T07:21:41.436Z,18.43
2023-05-01T07:23:44.343Z,18.21
2023-05-01T07:25:47.256Z,18.71
2023-05-01T07:27:50.210Z,18.91
2023-05-01T07:29:53.061Z,18.86
2023-05-01T07:31:56.059Z,18.60
2023-05-01T07:33:58.940Z,19.22
2023-05-01T07:36:01.932Z,19.30
2023-05-01T07:38:06.157Z,19.28
2023-05-01T07:40:09.581Z,19.06
2023-05-01T07:42:12.437Z,19.01
2023-05-01T07:44:15.458Z,19.05
2023-05-01T07:46:18.380Z,19.08
2023-05-01T07:48:21.852Z,19.31
2023-05-01T07:50:25.902Z,19.69
2023-05-01T07:52:28.964Z,19.86
2023-05-01T07:54:33.194Z,19.75
2023-05-01T07:56:36.217Z,19.71
2023-05-01T07:58:41.417Z,19.49
2023-05-01T08:00:45.592Z,19.56
2023-05-01T08:02:48.653Z,19.30
2023-05-01T08:04:51.982Z,19.53
2023-05-01T08:06:55.038Z,19.79
2023-05-01T08:08:57.993Z,19.44
2023-05-01T08:11:02.272Z,19.22
2023-05-01T08:13:05.469Z,19.48
2023-05-01T08:15:09.358Z,19.72
2023-05-01T08:17:12.304Z,19.94
2023-05-01T08:19:15.733Z,19.49
2023-05-01T08:21:18.714Z,20.16
2023-05-01T08:23:21.802Z,20.27
2023-05-01T08:25:24.674Z,20.76
2023-05-01T08:27:29.003Z,21.01
2023-05-01T08:29:32.098Z,21.25
2023-05-01T08:31:37.777Z,21.10
2023-05-01T08:33:42.023Z,20.70
2023-05-01T08:35:44.922Z,21.04
2023-05-01T08:37:47.813Z,20.73
2023-05-01T08:39:50.696Z,20.89
2023-05-01T08:41:54.114Z,21.63
2023-05-01T08:43:59.650Z,21.54
2023-05-01T08:46:03.056Z,21.44
2023-05-01T08:48:10.167Z,21.43
2023-05-01T08:50:15.079Z,20.88
2023-05-01T08:52:18.229Z,21.13
2023-05-01T08:54:22.129Z,21.45
2023-05-01T08:56:25.183Z,21.81
2023-05-01T08:58:28.511Z,21.88
2023-05-01T09:00:34.560Z,22.81
2023-05-01T09:02:38.205Z,23.19
2023-05-01T09:04:42.043Z,23.02
2023-05-01T09:06:45.438Z,23.26
2023-05-01T09:08:48.337Z,23.37
2023-05-01T09:10:51.883Z,23.25
2023-05-01T09:12:58.240Z,23.34
2023-05-01T09:15:01.119Z,24.14
2023-05-01T09:17:05.636Z,24.78
2023-05-01T09:19:08.550Z,24.86
2023-05-01T09:21:12.250Z,25.05
2023-05-01T09:23:16.435Z,23.69
2023-05-01T09:25:19.522Z,24.31
2023-05-01T09:27:22.407Z,23.49
2023-05-01T09:29:38.994Z,23.66
2023-05-01T09:31:41.894Z,23.61
2023-05-01T09:33:55.119Z,23.79
2023-05-01T09:35:59.724Z,23.39
2023-05-01T09:38:02.765Z,23.23
2023-05-01T09:40:07.861Z,23.18
2023-05-01T09:42:10.869Z,23.50
2023-05-01T09:44:20.065Z,23.87
2023-05-01T09:46:24.446Z,23.96
2023-05-01T09:48:27.560Z,23.89
2023-05-01T09:50:33.598Z,24.28
2023-05-01T09:52:36.527Z,24.62
2023-05-01T09:54:39.773Z,24.09
2023-05-01T09:56:48.135Z,24.79
2023-05-01T09:58:54.806Z,25.49
2023-05-01T10:00:57.767Z,25.87
2023-05-01T10:03:14.411Z,26.11
2023-05-01T10:05:17.539Z,25.94
2023-05-01T10:07:22.007Z,26.78
2023-05-01T10:09:28.827Z,27.11
2023-05-01T10:11:32.144Z,27.09
2023-05-01T10:13:35.064Z,27.53
2023-05-01T10:15:38.602Z,27.24
2023-05-01T10:17:43.562Z,27.53
2023-05-01T10:19:46.625Z,27.26
2023-05-01T10:21:49.501Z,27.11
2023-05-01T10:23:54.486Z,26.40
2023-05-01T10:25:58.585Z,25.91
2023-05-01T10:28:04.918Z,25.84
2023-05-01T10:30:09.523Z,25.32
2023-05-01T10:32:13.053Z,25.29
2023-05-01T10:34:18.088Z,24.78
2023-05-01T10:36:23.188Z,24.56
2023-05-01T10:38:28.807Z,24.76
2023-05-01T10:40:50.179Z,24.54
2023-05-01T10:43:20.988Z,24.31
2023-05-01T10:45:30.511Z,24.35
2023-05-01T10:47:48.930Z,24.28
2023-05-01T10:50:05.932Z,24.04
2023-05-01T10:52:08.842Z,24.06
2023-05-01T10:54:25.657Z,23.27
2023-05-01T10:56:45.176Z,23.57
2023-05-01T10:58:59.343Z,23.36
2023-05-01T11:01:29.911Z,23.38
2023-05-01T11:03:35.946Z,23.36
2023-05-01T11:06:06.376Z,23.25
2023-05-01T11:08:33.188Z,23.25
2023-05-01T11:10:36.034Z,23.07
2023-05-01T11:12:53.727Z,23.09
2023-05-01T11:15:04.519Z,22.98
2023-05-01T11:17:07.521Z,22.58
2023-05-01T11:19:11.327Z,22.69
2023-05-01T11:21:14.285Z,22.77
2023-05-01T11:23:21.430Z,23.03
2023-05-01T11:25:27.215Z,23.27
2023-05-01T11:27:30.269Z,23.44
2023-05-01T11:29:34.626Z,23.26
2023-05-01T11:31:37.709Z,23.57
2023-05-01T11:33:41.170Z,23.65
2023-05-01T11:35:44.357Z,23.54
2023-05-01T11:37:47.747Z,23.56
2023-05-01T11:39:52.057Z,22.86
2023-05-01T11:42:07.869Z,23.10
2023-05-01T11:44:13.649Z,22.49
2023-05-01T11:46:24.963Z,22.88
2023-05-01T11:48:28.140Z,22.93
2023-05-01T11:50:35.995Z,23.00
2023-05-01T11:52:46.263Z,23.05
2023-05-01T11:54:49.518Z,22.49
2023-05-01T11:56:59.769Z,22.62
2023-05-01T11:59:11.456Z,22.90
2023-05-01T12:01:14.449Z,22.77
2023-05-01T12:03:19.203Z,22.71
2023-05-01T12:05:23.367Z,22.08
2023-05-01T12:07:26.561Z,22.30
2023-05-01T12:09:29.955Z,22.22
2023-05-01T12:11:32.981Z,22.06
2023-05-01T12:13:36.390Z,21.59
2023-05-01T12:15:40.934Z,21.85
2023-05-01T12:17:46.433Z,22.02
2023-05-01T12:19:50.822Z,21.70
2023-05-01T12:22:06.473Z,21.94
2023-05-01T12:24:10.541Z,21.74
2023-05-01T12:26:20.192Z,21.95
2023-05-01T12:28:23.306Z,21.78
2023-05-01T12:30:27.091Z,21.41
2023-05-01T12:32:32.356Z,21.58
2023-05-01T12:34:35.463Z,21.70
2023-05-01T12:36:39.940Z,21.76
2023-05-01T12:38:42.942Z,21.82
2023-05-01T12:40:54.267Z,21.86
2023-05-01T12:42:58.408Z,22.04
2023-05-01T12:45:02.120Z,22.28
2023-05-01T12:47:06.182Z,22.41
2023-05-01T12:49:09.212Z,22.18
2023-05-01T12:51:19.488Z,22.22
2023-05-01T12:53:24.358Z,22.30
2023-05-01T12:55:28.352Z,22.24
2023-05-01T12:57:31.288Z,22.60
2023-05-01T12:59:34.256Z,22.93
2023-05-01T13:01:37.233Z,22.99
2023-05-01T13:03:45.103Z,22.99
2023-05-01T13:05:52.632Z,23.54
2023-05-01T13:07:55.589Z,23.31
2023-05-01T13:10:01.264Z,23.48
2023-05-01T13:12:05.936Z,23.68
2023-05-01T13:14:09.710Z,23.83
2023-05-01T13:16:13.787Z,23.19
2023-05-01T13:18:17.209Z,22.57
2023-05-01T13:20:27.918Z,22.37
2023-05-01T13:22:32.373Z,21.86
2023-05-01T13:24:40.054Z,21.74
2023-05-01T13:26:46.040Z,21.79
2023-05-01T13:28:49.003Z,21.90
2023-05-01T13:30:52.241Z,21.73
2023-05-01T13:32:55.148Z,21.93
2023-05-01T13:35:01.882Z,21.89
2023-05-01T13:37:04.873Z,22.20
2023-05-01T13:39:08.143Z,22.41
2023-05-01T13:41:15.488Z,22.59
2023-05-01T13:43:22.299Z,22.34
2023-05-01T13:45:26.026Z,22.57
2023-05-01T13:47:29.199Z,22.79
2023-05-01T13:49:32.754Z,22.69
2023-05-01T13:51:37.859Z,23.07
2023-05-01T13:53:41.948Z,22.68
2023-05-01T13:55:45.143Z,22.56
2023-05-01T13:57:48.019Z,23.21
2023-05-01T13:59:52.664Z,23.78
2023-05-01T14:01:55.623Z,23.86
2023-05-01T14:04:00.481Z,23.68
2023-05-01T14:06:04.421Z,23.87
2023-05-01T14:08:07.848Z,24.03
2023-05-01T14:10:11.207Z,24.28
2023-05-01T14:12:14.855Z,24.52
2023-05-01T14:14:18.732Z,24.91
2023-05-01T14:16:25.959Z,25.01
2023-05-01T14:18:28.980Z,24.98
2023-05-01T14:20:32.105Z,24.91
2023-05-01T14:22:41.814Z,24.69
2023-05-01T14:24:45.004Z,24.05
2023-05-01T14:26:49.977Z,23.97
2023-05-01T14:28:53.329Z,24.17
2023-05-01T14:30:56.352Z,24.31
2023-05-01T14:33:03.333Z,24.27
2023-05-01T14:35:11.453Z,24.14
2023-05-01T14:37:15.078Z,24.28
2023-05-01T14:39:18.326Z,24.12
2023-05-01T14:41:21.609Z,24.19
2023-05-01T14:43:24.779Z,23.79
2023-05-01T14:45:28.388Z,23.08
2023-05-01T14:47:31.360Z,23.03
2023-05-01T14:49:35.941Z,22.94
2023-05-01T14:51:42.296Z,22.54
2023-05-01T14:53:45.243Z,23.04
2023-05-01T14:55:51.352Z,23.21
2023-05-01T14:57:54.352Z,23.42
2023-05-01T14:59:57.277Z,23.48
2023-05-01T15:02:03.982Z,23.58
2023-05-01T15:04:07.808Z,23.54
2023-05-01T15:06:12.519Z,23.53
2023-05-01T15:08:15.637Z,23.63
2023-05-01T15:10:18.726Z,23.63
2023-05-01T15:12:21.621Z,23.89
2023-05-01T15:14:27.243Z,23.99
2023-05-01T15:16:32.986Z,23.96
2023-05-01T15:18:37.158Z,24.00
2023-05-01T15:20:41.161Z,24.00
2023-05-01T15:22:45.471Z,23.57
2023-05-01T15:24:48.681Z,23.35
2023-05-01T15:26:52.657Z,23.64
2023-05-01T15:28:55.570Z,23.44
2023-05-01T15:30:58.755Z,23.21
2023-05-01T15:33:01.779Z,23.27
2023-05-01T15:35:05.032Z,23.27
2023-05-01T15:37:08.207Z,23.19
2023-05-01T15:39:13.286Z,23.11
2023-05-01T15:41:18.857Z,23.08
2023-05-01T15:43:23.428Z,23.10
2023-05-01T15:45:27.422Z,23.08
2023-05-01T15:47:30.950Z,22.93
2023-05-01T15:49:34.130Z,22.85
2023-05-01T15:51:37.391Z,22.78
2023-05-01T15:53:40.286Z,22.45
2023-05-01T15:55:44.610Z,22.22
2023-05-01T15:57:48.632Z,22.07
2023-05-01T15:59:53.973Z,21.73
2023-05-01T16:01:57.442Z,21.39
2023-05-01T16:04:06.522Z,21.09
2023-05-01T16:06:09.747Z,20.48
2023-05-01T16:08:13.005Z,20.29
2023-05-01T16:10:16.926Z,19.91
2023-05-01T16:12:22.008Z,19.75
2023-05-01T16:14:25.073Z,19.44
2023-05-01T16:16:29.817Z,19.10
2023-05-01T16:18:33.434Z,18.74
2023-05-01T16:20:41.293Z,18.64
2023-05-01T16:22:44.571Z,18.58
2023-05-01T16:24:47.723Z,18.28
2023-05-01T16:26:50.825Z,18.03
2023-05-01T16:28:58.002Z,17.96
2023-05-01T16:31:01.259Z,17.73
2023-05-01T16:33:05.347Z,17.63
2023-05-01T16:35:11.554Z,17.55
2023-05-01T16:37:15.086Z,17.55
2023-05-01T16:39:19.847Z,17.52
2023-05-01T16:41:25.157Z,17.46
2023-05-01T16:43:28.401Z,17.32
2023-05-01T16:45:33.990Z,17.19
2023-05-01T16:47:36.903Z,17.17
2023-05-01T16:49:42.338Z,17.01
2023-05-01T16:51:45.486Z,16.96
2023-05-01T16:53:49.406Z,16.88
2023-05-01T16:55:53.247Z,16.89
2023-05-01T16:57:56.251Z,16.80
2023-05-01T16:59:59.781Z,16.78
2023-05-01T17:02:06.914Z,16.73
2023-05-01T17:04:10.087Z,16.72
2023-05-01T17:06:13.104Z,16.71
2023-05-01T17:08:16.029Z,16.72
2023-05-01T17:10:19.135Z,16.75
2023-05-01T17:12:22.492Z,16.79
2023-05-01T17:14:27.821Z,16.70
2023-05-01T17:16:33.378Z,16.72
2023-05-01T17:18:38.009Z,16.73
2023-05-01T17:20:41.621Z,16.58
2023-05-01T17:22:45.699Z,16.65
2023-05-01T17:24:48.864Z,16.71
2023-05-01T17:26:51.998Z,16.73
2023-05-01T17:28:55.258Z,16.72
2023-05-01T17:30:58.666Z,16.81
2023-05-01T17:33:01.908Z,16.72
2023-05-01T17:35:09.793Z,16.77
2023-05-01T17:37:12.803Z,16.20
2023-05-01T17:39:15.952Z,16.11
2023-05-01T17:41:18.832Z,15.72
2023-05-01T17:43:22.459Z,15.95
2023-05-01T17:45:25.818Z,15.87
2023-05-01T17:47:28.925Z,16.05
2023-05-01T17:49:32.843Z,16.01
2023-05-01T17:51:37.487Z,16.18
2023-05-01T17:53:42.389Z,16.34
2023-05-01T17:55:47.833Z,16.44
2023-05-01T17:58:16.338Z,16.56
2023-05-01T18:00:19.921Z,16.55
2023-05-01T18:02:23.283Z,16.59
2023-05-01T18:04:26.461Z,16.60
2023-05-01T18:06:29.344Z,16.57
2023-05-01T18:08:35.969Z,15.94
2023-05-01T18:10:39.554Z,15.98
2023-05-01T18:12:43.611Z,15.99
2023-05-01T18:14:46.544Z,15.95
2023-05-01T18:16:49.478Z,15.69
2023-05-01T18:18:53.070Z,15.86
2023-05-01T18:20:56.253Z,16.02
2023-05-01T18:22:59.192Z,16.14
2023-05-01T18:25:03.651Z,16.17
2023-05-01T18:27:06.846Z,16.20
2023-05-01T18:29:10.022Z,16.17
2023-05-01T18:31:14.291Z,15.67
2023-05-01T18:33:19.078Z,15.71
2023-05-01T18:35:21.990Z,15.48
2023-05-01T18:37:25.913Z,15.47
2023-05-01T18:39:29.026Z,15.35
2023-05-01T18:41:33.937Z,15.39
2023-05-01T18:43:37.226Z,15.42
2023-05-01T18:45:43.047Z,15.45
2023-05-01T18:47:46.047Z,15.35
2023-05-01T18:49:51.050Z,15.33
2023-05-01T18:51:54.591Z,15.20
2023-05-01T18:53:57.701Z,15.26
2023-05-01T18:56:00.806Z,15.37
2023-05-01T18:58:05.368Z,15.52
2023-05-01T19:00:09.874Z,15.49
2023-05-01T19:02:13.171Z,15.57
2023-05-01T19:04:17.361Z,15.45
2023-05-01T19:06:20.406Z,15.53
2023-05-01T19:08:23.562Z,15.57
2023-05-01T19:10:27.098Z,15.58
2023-05-01T19:12:30.817Z,15.34
2023-05-01T19:14:38.273Z,15.54
2023-05-01T19:16:44.645Z,15.43
2023-05-01T19:18:51.025Z,15.42
2023-05-01T19:20:54.071Z,15.56
2023-05-01T19:22:57.821Z,15.57
2023-05-01T19:25:01.398Z,15.57
2023-05-01T19:27:04.483Z,15.57
2023-05-01T19:29:09.408Z,15.55
2023-05-01T19:31:14.819Z,15.34
2023-05-01T19:33:19.668Z,15.12
2023-05-01T19:35:22.744Z,15.09
2023-05-01T19:37:27.700Z,15.21
2023-05-01T19:39:30.912Z,15.18
2023-05-01T19:41:35.555Z,15.26
2023-05-01T19:43:43.248Z,15.13
2023-05-01T19:45:47.905Z,15.12
2023-05-01T19:47:52.695Z,15.24
2023-05-01T19:49:56.848Z,15.21
2023-05-01T19:51:59.878Z,15.23
2023-05-01T19:54:04.465Z,15.23
2023-05-01T19:56:07.773Z,15.31
2023-05-01T19:58:11.722Z,15.33
2023-05-01T20:00:16.177Z,15.21
2023-05-01T20:02:21.077Z,15.14
2023-05-01T20:04:26.763Z,14.86
2023-05-01T20:06:29.848Z,14.83
2023-05-01T20:08:34.730Z,14.88
2023-05-01T20:10:38.214Z,14.74
2023-05-01T20:12:42.067Z,14.69
2023-05-01T20:14:45.258Z,14.57
2023-05-01T20:16:50.829Z,14.60
2023-05-01T20:18:54.269Z,14.50
2023-05-01T20:20:58.842Z,14.55
2023-05-01T20:23:12.145Z,14.59
2023-05-01T20:25:15.134Z,14.54
2023-05-01T20:27:18.039Z,14.32
2023-05-01T20:29:20.957Z,14.25
2023-05-01T20:31:23.956Z,14.50
2023-05-01T20:33:26.878Z,14.53
2023-05-01T20:35:29.777Z,14.57
2023-05-01T20:37:34.045Z,14.49
2023-05-01T20:39:36.891Z,14.59
2023-05-01T20:41:39.713Z,14.59
2023-05-01T20:43:42.849Z,14.59
2023-05-01T20:45:45.650Z,14.56
2023-05-01T20:47:49.325Z,14.59
2023-05-01T20:49:52.280Z,14.59
2023-05-01T20:51:56.681Z,14.56
2023-05-01T20:54:00.931Z,14.55
2023-05-01T20:56:03.814Z,14.56
2023-05-01T20:58:07.722Z,14.58
2023-05-01T21:00:11.561Z,14.63
2023-05-01T21:02:14.590Z,14.48
2023-05-01T21:04:17.815Z,14.36
2023-05-01T21:06:20.916Z,14.43
2023-05-01T21:08:24.112Z,14.54
2023-05-01T21:10:28.516Z,14.22
2023-05-01T21:12:31.401Z,14.46
2023-05-01T21:14:34.588Z,14.59
2023-05-01T21:16:37.710Z,14.46
2023-05-01T21:18:42.106Z,14.58
2023-05-01T21:20:46.912Z,14.37
2023-05-01T21:22:50.163Z,14.18
2023-05-01T21:24:54.624Z,14.37
2023-05-01T21:27:01.224Z,14.33
2023-05-01T21:29:04.127Z,14.36
2023-05-01T21:31:07.185Z,14.33
2023-05-01T21:33:15.168Z,14.43
2023-05-01T21:35:20.052Z,14.49
2023-05-01T21:37:23.714Z,14.59
2023-05-01T21:39:26.914Z,14.44
2023-05-01T21:41:29.732Z,14.56
2023-05-01T21:43:34.666Z,14.57
2023-05-01T21:45:40.377Z,14.71
2023-05-01T21:47:45.022Z,14.77
2023-05-01T21:49:48.042Z,14.88
2023-05-01T21:51:50.929Z,14.92
2023-05-01T21:53:53.953Z,14.85
2023-05-01T21:55:56.833Z,14.84
2023-05-01T21:58:00.032Z,15.01
2023-05-01T22:00:09.228Z,15.02
2023-05-01T22:02:15.443Z,14.74
2023-05-01T22:04:18.993Z,14.65
2023-05-01T22:06:24.230Z,14.88
2023-05-01T22:08:29.203Z,14.87
2023-05-01T22:10:32.753Z,14.86
2023-05-01T22:12:35.725Z,14.88
2023-05-01T22:14:47.197Z,14.83
2023-05-01T22:16:52.662Z,14.84
2023-05-01T22:18:55.547Z,14.73
2023-05-01T22:20:59.236Z,14.76
2023-05-01T22:23:02.171Z,14.81
2023-05-01T22:25:06.072Z,14.54
2023-05-01T22:27:09.113Z,14.25
2023-05-01T22:29:12.238Z,14.19
2023-05-01T22:31:16.636Z,14.28
2023-05-01T22:33:21.418Z,14.41
2023-05-01T22:35:24.330Z,14.21
2023-05-01T22:37:27.249Z,14.32
2023-05-01T22:39:30.459Z,14.35
2023-05-01T22:41:33.527Z,14.33
2023-05-01T22:43:36.458Z,14.33
2023-05-01T22:45:40.278Z,14.32
2023-05-01T22:47:43.222Z,14.18
2023-05-01T22:49:47.677Z,14.25
2023-05-01T22:51:51.020Z,14.23
2023-05-01T22:53:54.363Z,14.25
2023-05-01T22:55:57.293Z,14.02
2023-05-01T22:58:01.390Z,14.05
2023-05-01T23:00:05.859Z,14.01
2023-05-01T23:02:09.083Z,13.99
2023-05-01T23:04:12.659Z,13.97
2023-05-01T23:06:17.091Z,13.82
2023-05-01T23:08:19.993Z,13.59
2023-05-01T23:10:25.310Z,13.78
2023-05-01T23:12:28.885Z,13.71
2023-05-01T23:14:32.090Z,13.75
2023-05-01T23:16:42.357Z,13.75
2023-05-01T23:18:45.642Z,13.80
2023-05-01T23:20:48.555Z,13.92
2023-05-01T23:22:53.280Z,13.87
2023-05-01T23:24:56.157Z,13.98
2023-05-01T23:26:59.593Z,14.03
2023-05-01T23:29:02.714Z,14.14
2023-05-01T23:31:05.920Z,14.18
2023-05-01T23:33:12.480Z,14.21
2023-05-01T23:35:16.878Z,14.26
2023-05-01T23:37:20.101Z,14.30
2023-05-01T23:39:24.377Z,14.27
2023-05-01T23:41:27.663Z,14.31
2023-05-01T23:43:30.578Z,14.23
2023-05-01T23:45:33.797Z,14.23
2023-05-01T23:47:37.403Z,14.21
2023-05-01T23:49:40.321Z,14.27
2023-05-01T23:51:43.175Z,14.26
2023-05-01T23:53:46.199Z,14.23
2023-05-01T23:55:50.574Z,14.18
2023-05-01T23:57:55.409Z,14.05
2023-05-01T23:59:58.588Z,13.95
